Terminal Aerodrome Forecast
Issued by NWS

Home | Current Version | Previous Version | Text Only | Print | Product List | Glossary On
Versions: 1 2 3 4 5 6 7 8 9 10 11 12
000
FTUS45 KABQ 282300
TAFTCC
TAF
KTCC 282322Z 2900/2924 20007KT P6SM SKC
     FM290600 28006KT P6SM SKC
     FM291400 01019G29KT P6SM SKC
     FM291700 07013G23KT P6SM SCT250
     FM292100 08011KT P6SM BKN250=

USA.gov is the U.S. government's official web portal to all federal, state and local government web resources and services.